Pulleys Mill, Illinois
Current Conditions -  °F | °C
As of 10:57 AM on Sunday 21 Dec 2014 (Local Time) from KMWA Reporting Station
Broken Clouds Broken Clouds  
Wind Chill: 36°   Ceiling: 25000
Heat Index: 41°   Visibility: 15mi
Dew Point: 30°   Wind: 8mph
Humidity: 65%   Direction: 130°SE
Pressure: 30.23"   Gusts: NA
Location:  37.565°N, 88.982°W
Report Text: KMWA 211657Z 13007KT 15SM SCT150 BKN250 05/M01 A3023
Loading
Personal Weather Stations






























Interactive Weather Map New forecast layout! Learn more

10-Day Weather Forecast

Advertisements
Track Severe Weather on mobile